Time;durP1;ratioP1;P1;durP2;ratioP2;P2;SDS_P1;SDS_P2;PMS_P1;PMS_P2;Temp;Humidity;BMP_temperature;BMP_pressure;BME280_temperature;BME280_humidity;BME280_pressure;Samples;Min_cycle;Max_cycle;Signal;HPM_P1;HPM_P2
2023/08/05 00:00:03;;;;;;;132.20;70.00;;;;;;;;;;4957694;28;20520;-82
2023/08/05 00:02:36;;;;;;;130.07;71.28;;;;;;;;;;4955297;28;20492;-82
2023/08/05 00:05:08;;;;;;;132.50;71.57;;;;;;;;;;4970353;28;20047;-82
2023/08/05 00:07:39;;;;;;;135.20;71.00;;;;;;;;;;4939219;29;20051;-83
2023/08/05 00:10:10;;;;;;;132.07;70.03;;;;;;;;;;4955409;29;20051;-83
2023/08/05 00:12:43;;;;;;;123.78;67.00;;;;;;;;;;4955693;29;20047;-83
2023/08/05 00:15:13;;;;;;;132.20;68.18;;;;;;;;;;4955398;29;20040;-83
2023/08/05 00:17:44;;;;;;;132.48;71.95;;;;;;;;;;4952032;29;20043;-83
2023/08/05 00:20:18;;;;;;;130.27;70.82;;;;;;;;;;4955665;29;20058;-84
2023/08/05 00:22:50;;;;;;;135.23;73.40;;;;;;;;;;4954082;29;20051;-85
2023/08/05 00:25:20;;;;;;;125.07;65.82;;;;;;;;;;4957371;28;20054;-82
2023/08/05 00:27:52;;;;;;;123.95;64.75;;;;;;;;;;4957428;28;20043;-83
2023/08/05 00:30:23;;;;;;;122.60;65.65;;;;;;;;;;4957564;28;20050;-83
2023/08/05 00:32:56;;;;;;;124.32;65.95;;;;;;;;;;4973735;28;20065;-83
2023/08/05 00:35:26;;;;;;;129.40;72.60;;;;;;;;;;4973891;28;20401;-86
2023/08/05 00:37:59;;;;;;;112.88;62.35;;;;;;;;;;4973922;28;20042;-83
2023/08/05 00:40:30;;;;;;;108.10;55.10;;;;;;;;;;4972362;28;20043;-84
2023/08/05 00:43:03;;;;;;;94.82;48.70;;;;;;;;;;4971930;28;20538;-83
2023/08/05 00:45:33;;;;;;;99.68;52.58;;;;;;;;;;4968646;28;20035;-84
2023/08/05 00:48:04;;;;;;;95.35;48.25;;;;;;;;;;4940047;28;20047;-84
2023/08/05 00:50:36;;;;;;;95.10;46.47;;;;;;;;;;4956986;28;20058;-84
2023/08/05 00:53:08;;;;;;;90.88;45.28;;;;;;;;;;4956580;28;20047;-84
2023/08/05 00:55:39;;;;;;;88.55;43.85;;;;;;;;;;4980685;28;20057;-84
2023/08/05 00:58:11;;;;;;;;;;;;;;;;;;4974666;28;20058;-84
2023/08/05 01:00:42;;;;;;;73.63;37.17;;;;;;;;;;4972310;28;19922;-84
2023/08/05 01:03:15;;;;;;;70.53;32.63;;;;;;;;;;4974364;28;20051;-84
2023/08/05 01:05:52;;;;;;;58.38;30.02;;;;;;;;;;4972323;28;20035;-84
2023/08/05 01:08:27;;;;;;;62.72;29.38;;;;;;;;;;4966963;28;20665;-84
2023/08/05 01:11:00;;;;;;;59.88;28.42;;;;;;;;;;4968602;28;20039;-86
2023/08/05 01:13:36;;;;;;;62.47;27.63;;;;;;;;;;4974074;28;20054;-85
2023/08/05 01:16:06;;;;;;;61.17;27.45;;;;;;;;;;4955825;28;20069;-85
2023/08/05 01:18:39;;;;;;;54.45;27.17;;;;;;;;;;4956952;28;20055;-84
2023/08/05 01:21:22;;;;;;;53.20;24.73;;;;;;;;;;4955534;28;20050;-84
2023/08/05 01:23:56;;;;;;;51.75;24.33;;;;;;;;;;4972649;28;20054;-85
2023/08/05 01:26:28;;;;;;;48.95;22.13;;;;;;;;;;4956597;28;20051;-85
2023/08/05 01:28:58;;;;;;;46.30;22.23;;;;;;;;;;4956490;28;20413;-84
2023/08/05 01:31:32;;;;;;;46.90;22.08;;;;;;;;;;4956091;28;20054;-85
2023/08/05 01:34:07;;;;;;;45.42;22.45;;;;;;;;;;4956325;28;20062;-84
2023/08/05 01:36:38;;;;;;;44.83;21.23;;;;;;;;;;4972963;28;20046;-83
2023/08/05 01:39:08;;;;;;;48.88;22.02;;;;;;;;;;4974287;28;20512;-85
2023/08/05 01:41:45;;;;;;;43.00;22.48;;;;;;;;;;4969400;28;20050;-84
2023/08/05 01:44:20;;;;;;;42.70;19.95;;;;;;;;;;4957720;28;20055;-86
2023/08/05 01:46:51;;;;;;;43.20;21.25;;;;;;;;;;4973379;28;20043;-83
2023/08/05 01:49:23;;;;;;;37.90;20.60;;;;;;;;;;4965420;28;20057;-84
2023/08/05 01:51:56;;;;;;;38.70;19.33;;;;;;;;;;4956096;28;20050;-85
2023/08/05 01:54:30;;;;;;;47.90;21.27;;;;;;;;;;4957155;28;20428;-83
2023/08/05 01:57:00;;;;;;;37.78;18.77;;;;;;;;;;4974782;28;20055;-85
2023/08/05 01:59:35;;;;;;;33.25;16.58;;;;;;;;;;4972712;28;20482;-84
2023/08/05 02:02:06;;;;;;;29.83;15.20;;;;;;;;;;4972961;28;20059;-83
2023/08/05 02:04:40;;;;;;;34.25;15.50;;;;;;;;;;4971640;28;20059;-85
2023/08/05 02:07:11;;;;;;;40.47;18.50;;;;;;;;;;4954239;28;20421;-84
2023/08/05 02:09:43;;;;;;;28.58;15.00;;;;;;;;;;4973888;28;20051;-82
2023/08/05 02:12:14;;;;;;;34.17;15.65;;;;;;;;;;4972838;28;20417;-84
2023/08/05 02:14:48;;;;;;;27.77;14.82;;;;;;;;;;4956706;28;20405;-84
2023/08/05 02:17:21;;;;;;;33.42;15.35;;;;;;;;;;4974573;28;20062;-84
2023/08/05 02:19:55;;;;;;;28.48;14.48;;;;;;;;;;4974802;28;20479;-84
2023/08/05 02:22:28;;;;;;;29.98;13.80;;;;;;;;;;4974727;28;20050;-84
2023/08/05 02:24:59;;;;;;;31.45;14.40;;;;;;;;;;4956477;28;20050;-84
2023/08/05 02:27:31;;;;;;;28.83;14.30;;;;;;;;;;4973656;28;20058;-84
2023/08/05 02:30:06;;;;;;;30.13;14.15;;;;;;;;;;4956521;28;20481;-84
2023/08/05 02:32:38;;;;;;;32.70;13.43;;;;;;;;;;4956706;28;20074;-84
2023/08/05 02:35:10;;;;;;;25.13;12.88;;;;;;;;;;4974532;28;20054;-84
2023/08/05 02:37:40;;;;;;;30.42;13.57;;;;;;;;;;4974769;28;20047;-84
2023/08/05 02:40:14;;;;;;;26.08;11.80;;;;;;;;;;4955957;28;20055;-85
2023/08/05 02:42:45;;;;;;;25.67;12.23;;;;;;;;;;4974294;28;20055;-85
2023/08/05 02:45:19;;;;;;;21.35;13.05;;;;;;;;;;4956062;28;20434;-84
2023/08/05 02:47:50;;;;;;;26.17;12.52;;;;;;;;;;4956060;28;20061;-85
2023/08/05 02:50:20;;;;;;;27.48;11.98;;;;;;;;;;4974185;28;20042;-84
2023/08/05 02:52:54;;;;;;;25.65;12.10;;;;;;;;;;4972367;28;20057;-84
2023/08/05 02:55:29;;;;;;;29.02;12.90;;;;;;;;;;4956584;28;20061;-85
2023/08/05 02:57:59;;;;;;;30.65;11.88;;;;;;;;;;4973219;28;20042;-84
2023/08/05 03:00:30;;;;;;;23.40;11.30;;;;;;;;;;4956435;28;20051;-84
2023/08/05 03:03:03;;;;;;;23.17;11.57;;;;;;;;;;4973570;28;20058;-85
2023/08/05 03:05:34;;;;;;;21.33;11.68;;;;;;;;;;4957290;28;20069;-84
2023/08/05 03:08:06;;;;;;;22.83;12.07;;;;;;;;;;4955677;28;20046;-84
2023/08/05 03:10:36;;;;;;;25.23;11.75;;;;;;;;;;4957574;28;20068;-84
2023/08/05 03:13:07;;;;;;;23.58;11.85;;;;;;;;;;4976234;28;20047;-84
2023/08/05 03:15:42;;;;;;;24.05;12.27;;;;;;;;;;4960093;28;20050;-84
2023/08/05 03:18:17;;;;;;;26.40;12.57;;;;;;;;;;4945168;28;20061;-84
2023/08/05 03:20:48;;;;;;;24.35;12.27;;;;;;;;;;4959999;28;20047;-84
2023/08/05 03:23:20;;;;;;;22.55;12.48;;;;;;;;;;4976273;28;20061;-84
2023/08/05 03:25:55;;;;;;;27.60;12.38;;;;;;;;;;4959824;28;20058;-84
2023/08/05 03:28:31;;;;;;;26.42;11.82;;;;;;;;;;4975940;28;20050;-84
2023/08/05 03:31:04;;;;;;;23.30;12.18;;;;;;;;;;4960442;28;20050;-84
2023/08/05 03:33:38;;;;;;;22.10;11.82;;;;;;;;;;4959942;28;20528;-84
2023/08/05 03:36:09;;;;;;;28.02;11.80;;;;;;;;;;4975696;28;20055;-84
2023/08/05 03:38:42;;;;;;;26.40;12.35;;;;;;;;;;4960908;28;20043;-84
2023/08/05 03:41:13;;;;;;;27.70;12.15;;;;;;;;;;4959097;28;20493;-84
2023/08/05 03:43:43;;;;;;;25.15;12.15;;;;;;;;;;4959410;28;20059;-84
2023/08/05 03:46:15;;;;;;;23.65;11.73;;;;;;;;;;4975555;28;20063;-84
2023/08/05 03:48:48;;;;;;;27.88;11.75;;;;;;;;;;4959533;28;20471;-84
2023/08/05 03:51:19;;;;;;;21.77;12.60;;;;;;;;;;4959580;28;20399;-83
2023/08/05 03:53:50;;;;;;;26.77;12.27;;;;;;;;;;4959574;28;20062;-84
2023/08/05 03:56:24;;;;;;;22.95;11.95;;;;;;;;;;4959769;28;20058;-84
2023/08/05 03:59:03;;;;;;;22.08;11.63;;;;;;;;;;4959522;28;20058;-83
2023/08/05 04:01:37;;;;;;;23.95;12.00;;;;;;;;;;4958976;28;20373;-84
2023/08/05 04:04:08;;;;;;;;;;;;;;;;;;4960963;28;20046;-83
2023/08/05 04:06:40;;;;;;;23.25;12.82;;;;;;;;;;4977420;28;19929;-85
2023/08/05 04:09:12;;;;;;;25.40;11.90;;;;;;;;;;4976764;28;20047;-84
2023/08/05 04:11:43;;;;;;;23.17;11.65;;;;;;;;;;4958886;28;20046;-83
2023/08/05 04:14:15;;;;;;;22.15;11.10;;;;;;;;;;4977146;28;20147;-83
2023/08/05 04:16:49;;;;;;;24.38;12.02;;;;;;;;;;4958820;28;20059;-84
2023/08/05 04:19:20;;;;;;;22.02;11.45;;;;;;;;;;4958703;28;20050;-84
2023/08/05 04:21:52;;;;;;;20.58;12.43;;;;;;;;;;4976364;28;20378;-84
2023/08/05 04:24:24;;;;;;;22.92;11.15;;;;;;;;;;4959278;28;20047;-85
2023/08/05 04:26:58;;;;;;;17.85;10.18;;;;;;;;;;4977209;28;20043;-84
2023/08/05 04:29:29;;;;;;;21.33;10.43;;;;;;;;;;4977033;28;20111;-83
2023/08/05 04:31:59;;;;;;;24.00;11.32;;;;;;;;;;4976785;28;20474;-84
2023/08/05 04:34:35;;;;;;;21.85;12.02;;;;;;;;;;4976995;28;20046;-84
2023/08/05 04:37:19;;;;;;;25.13;11.27;;;;;;;;;;4959973;28;20482;-83
2023/08/05 04:39:50;;;;;;;22.67;10.77;;;;;;;;;;4976564;28;20042;-84
2023/08/05 04:42:21;;;;;;;22.50;11.52;;;;;;;;;;4976775;28;20042;-85
2023/08/05 04:44:55;;;;;;;;;;;;;;;;;;4977064;28;20047;-83
2023/08/05 04:47:25;;;;;;;20.27;9.73;;;;;;;;;;4975771;28;19930;-84
2023/08/05 04:49:58;;;;;;;22.92;10.50;;;;;;;;;;4976225;28;20047;-85
2023/08/05 04:52:30;;;;;;;24.02;10.30;;;;;;;;;;4976313;28;20058;-83
2023/08/05 04:55:10;;;;;;;18.88;10.13;;;;;;;;;;4976270;28;20050;-84
2023/08/05 04:57:41;;;;;;;19.52;10.10;;;;;;;;;;4958215;28;20051;-83
2023/08/05 05:00:12;;;;;;;18.75;10.05;;;;;;;;;;4958981;28;20486;-84
2023/08/05 05:02:43;;;;;;;25.40;9.88;;;;;;;;;;4976294;28;20055;-83
2023/08/05 05:05:13;;;;;;;20.30;9.70;;;;;;;;;;4976256;28;20512;-84
2023/08/05 05:07:43;;;;;;;19.15;10.43;;;;;;;;;;4958548;28;20047;-84
2023/08/05 05:10:14;;;;;;;21.45;9.95;;;;;;;;;;4975657;28;20098;-83
2023/08/05 05:12:44;;;;;;;31.55;10.43;;;;;;;;;;4959216;28;20051;-84
2023/08/05 05:15:16;;;;;;;19.90;9.98;;;;;;;;;;4976184;28;20046;-84
2023/08/05 05:17:50;;;;;;;26.98;9.80;;;;;;;;;;4976271;28;20061;-84
2023/08/05 05:20:20;;;;;;;22.00;10.77;;;;;;;;;;4976039;28;20382;-84
2023/08/05 05:22:50;;;;;;;23.15;10.52;;;;;;;;;;4974726;28;20046;-83
2023/08/05 05:25:23;;;;;;;19.48;9.45;;;;;;;;;;4975817;28;20077;-84
2023/08/05 05:27:55;;;;;;;18.08;9.90;;;;;;;;;;4975937;28;20047;-84
2023/08/05 05:30:25;;;;;;;18.23;10.07;;;;;;;;;;4973379;28;20062;-83
2023/08/05 05:32:55;;;;;;;20.27;9.80;;;;;;;;;;4974134;28;20054;-83
2023/08/05 05:35:32;;;;;;;19.25;9.95;;;;;;;;;;4957532;28;20054;-84
2023/08/05 05:38:05;;;;;;;20.25;10.18;;;;;;;;;;4976004;28;20043;-84
2023/08/05 05:40:41;;;;;;;19.30;9.55;;;;;;;;;;4973532;28;20050;-83
2023/08/05 05:43:11;;;;;;;22.60;9.75;;;;;;;;;;4975598;28;20050;-83
2023/08/05 05:45:43;;;;;;;17.85;9.52;;;;;;;;;;4975434;28;20375;-83
2023/08/05 05:48:20;;;;;;;17.83;9.63;;;;;;;;;;4975727;28;20050;-83
2023/08/05 05:50:54;;;;;;;23.10;9.70;;;;;;;;;;4975366;28;20370;-83
2023/08/05 05:53:25;;;;;;;20.95;9.63;;;;;;;;;;4957306;28;20066;-84
2023/08/05 05:55:58;;;;;;;17.15;10.48;;;;;;;;;;4975360;28;20390;-83
2023/08/05 05:58:33;;;;;;;22.77;10.13;;;;;;;;;;4975231;28;20389;-83
2023/08/05 06:01:03;;;;;;;21.70;10.38;;;;;;;;;;4957586;28;20051;-83
2023/08/05 06:03:34;;;;;;;26.85;9.57;;;;;;;;;;4957503;28;20055;-82
2023/08/05 06:06:06;;;;;;;17.88;8.95;;;;;;;;;;4975134;28;20058;-83
2023/08/05 06:08:42;;;;;;;20.80;10.15;;;;;;;;;;4958279;28;20495;-83
2023/08/05 06:11:12;;;;;;;17.17;8.48;;;;;;;;;;4974947;28;20486;-82
2023/08/05 06:13:42;;;;;;;17.42;8.55;;;;;;;;;;4957386;28;20055;-83
2023/08/05 06:16:18;;;;;;;20.20;9.68;;;;;;;;;;4974786;28;20504;-83
2023/08/05 06:18:51;;;;;;;18.48;9.25;;;;;;;;;;4975113;28;20043;-84
2023/08/05 06:21:21;;;;;;;25.00;10.18;;;;;;;;;;4972738;28;20449;-83
2023/08/05 06:23:51;;;;;;;19.30;9.93;;;;;;;;;;4957177;28;20077;-83
2023/08/05 06:26:24;;;;;;;16.95;9.55;;;;;;;;;;4973470;28;20066;-83
2023/08/05 06:28:55;;;;;;;;;;;;;;;;;;4975030;28;20512;-83
2023/08/05 06:31:30;;;;;;;23.00;9.18;;;;;;;;;;4974536;28;19922;-82
2023/08/05 06:34:01;;;;;;;17.50;9.05;;;;;;;;;;4956462;28;20505;-83
2023/08/05 06:36:38;;;;;;;17.77;9.23;;;;;;;;;;4972662;28;20054;-84
2023/08/05 06:39:09;;;;;;;21.25;9.63;;;;;;;;;;4974319;28;20050;-84
2023/08/05 06:41:39;;;;;;;18.85;9.48;;;;;;;;;;4956618;28;20055;-83
2023/08/05 06:44:09;;;;;;;19.65;9.25;;;;;;;;;;4957446;28;20047;-83
2023/08/05 06:46:40;;;;;;;22.13;9.63;;;;;;;;;;4955777;28;20050;-85
2023/08/05 06:49:11;;;;;;;19.27;9.90;;;;;;;;;;4973987;28;20046;-84
2023/08/05 06:51:42;;;;;;;17.15;10.02;;;;;;;;;;4974387;28;20050;-84
2023/08/05 06:54:12;;;;;;;17.30;9.88;;;;;;;;;;4973933;28;20043;-83
2023/08/05 06:56:44;;;;;;;18.75;10.68;;;;;;;;;;4973590;28;20132;-83
2023/08/05 06:59:16;;;;;;;20.15;9.95;;;;;;;;;;4974013;28;20051;-83
2023/08/05 07:01:47;;;;;;;18.40;10.27;;;;;;;;;;4957101;28;20058;-83
2023/08/05 07:04:20;;;;;;;23.70;9.80;;;;;;;;;;4956128;28;20055;-83
2023/08/05 07:06:50;;;;;;;19.38;9.82;;;;;;;;;;4973450;28;20046;-83
2023/08/05 07:09:20;;;;;;;23.05;9.30;;;;;;;;;;4957336;28;20066;-83
2023/08/05 07:11:54;;;;;;;17.95;9.70;;;;;;;;;;4965794;28;20054;-84
2023/08/05 07:14:25;;;;;;;19.40;10.05;;;;;;;;;;4955120;29;20051;-83
2023/08/05 07:16:55;;;;;;;18.48;8.90;;;;;;;;;;4937485;29;20398;-83
2023/08/05 07:19:25;;;;;;;17.77;9.27;;;;;;;;;;4955006;29;20051;-84
2023/08/05 07:21:57;;;;;;;16.73;8.73;;;;;;;;;;4953317;29;20043;-83
2023/08/05 07:24:33;;;;;;;19.25;9.30;;;;;;;;;;4955523;29;20043;-83
2023/08/05 07:27:04;;;;;;;20.33;9.30;;;;;;;;;;4969258;28;20054;-83
2023/08/05 07:29:34;;;;;;;19.83;9.27;;;;;;;;;;4967966;28;20051;-83
2023/08/05 07:32:06;;;;;;;20.42;10.10;;;;;;;;;;4954293;29;20055;-84
2023/08/05 07:34:37;;;;;;;22.98;9.98;;;;;;;;;;4954667;29;20486;-83
2023/08/05 07:37:08;;;;;;;18.25;10.25;;;;;;;;;;4954660;29;20078;-83
2023/08/05 07:39:45;;;;;;;20.60;9.90;;;;;;;;;;4953470;29;20146;-83
2023/08/05 07:42:20;;;;;;;22.15;10.20;;;;;;;;;;4954997;29;20074;-83
2023/08/05 07:44:52;;;;;;;19.85;9.18;;;;;;;;;;4954635;29;20043;-83
2023/08/05 07:47:25;;;;;;;23.73;10.38;;;;;;;;;;4954529;29;20062;-84
2023/08/05 07:49:56;;;;;;;21.15;10.23;;;;;;;;;;4954593;29;20047;-83
2023/08/05 07:52:30;;;;;;;21.42;10.75;;;;;;;;;;4952242;29;20074;-83
2023/08/05 07:55:03;;;;;;;19.35;9.80;;;;;;;;;;4953328;29;20035;-83
2023/08/05 07:57:36;;;;;;;22.17;9.35;;;;;;;;;;4968847;28;20505;-82
2023/08/05 08:00:11;;;;;;;18.45;10.27;;;;;;;;;;4964852;28;20042;-83
2023/08/05 08:02:44;;;;;;;17.85;9.50;;;;;;;;;;4940642;29;20047;-83
2023/08/05 08:05:16;;;;;;;18.98;9.80;;;;;;;;;;4928868;29;20402;-83
2023/08/05 08:07:50;;;;;;;19.88;9.52;;;;;;;;;;4937174;29;20383;-83
2023/08/05 08:10:25;;;;;;;18.65;9.10;;;;;;;;;;4934880;29;20070;-84
2023/08/05 08:12:57;;;;;;;19.77;10.25;;;;;;;;;;4951048;29;20051;-82
2023/08/05 08:15:29;;;;;;;21.83;9.55;;;;;;;;;;4938642;29;20052;-82
2023/08/05 08:17:59;;;;;;;16.65;8.77;;;;;;;;;;4938309;29;20483;-82
2023/08/05 08:20:29;;;;;;;20.23;8.95;;;;;;;;;;4939050;29;20051;-83
2023/08/05 08:23:03;;;;;;;19.52;9.23;;;;;;;;;;4936357;29;20052;-84
2023/08/05 08:25:37;;;;;;;19.10;9.13;;;;;;;;;;4934127;29;20063;-84
2023/08/05 08:28:10;;;;;;;18.33;8.73;;;;;;;;;;4917564;29;20055;-83
2023/08/05 08:30:40;;;;;;;16.20;8.52;;;;;;;;;;4918243;29;20503;-84
2023/08/05 08:33:12;;;;;;;17.17;8.20;;;;;;;;;;4918954;29;20040;-83
2023/08/05 08:35:50;;;;;;;15.75;8.32;;;;;;;;;;4932933;29;20051;-83
2023/08/05 08:38:23;;;;;;;21.85;9.20;;;;;;;;;;4918840;29;20044;-84
2023/08/05 08:40:58;;;;;;;19.83;9.70;;;;;;;;;;4933286;29;20052;-83
2023/08/05 08:43:31;;;;;;;17.80;8.88;;;;;;;;;;4919252;29;20058;-84
2023/08/05 08:46:05;;;;;;;16.35;8.50;;;;;;;;;;4919374;29;20040;-83
2023/08/05 08:48:36;;;;;;;21.33;9.88;;;;;;;;;;4917841;29;20052;-83
2023/08/05 08:51:09;;;;;;;18.48;9.20;;;;;;;;;;4918854;29;20048;-83
2023/08/05 08:53:43;;;;;;;21.13;9.38;;;;;;;;;;4919478;29;20059;-83
2023/08/05 08:56:15;;;;;;;18.90;9.35;;;;;;;;;;4918663;29;20068;-83
2023/08/05 08:58:45;;;;;;;19.13;8.65;;;;;;;;;;4918692;29;20407;-83
2023/08/05 09:01:18;;;;;;;17.25;9.02;;;;;;;;;;4918729;29;20055;-84
2023/08/05 09:03:53;;;;;;;19.00;8.98;;;;;;;;;;4957480;29;20051;-82
2023/08/05 09:06:24;;;;;;;20.27;9.30;;;;;;;;;;4956709;29;20048;-82
2023/08/05 09:08:54;;;;;;;21.85;8.73;;;;;;;;;;4956071;28;20054;-84
2023/08/05 09:11:24;;;;;;;18.17;8.85;;;;;;;;;;4956876;29;20042;-83
2023/08/05 09:14:00;;;;;;;20.15;9.00;;;;;;;;;;4956450;29;20058;-83
2023/08/05 09:16:31;;;;;;;18.67;8.45;;;;;;;;;;4956797;29;20050;-84
2023/08/05 09:19:02;;;;;;;16.67;9.20;;;;;;;;;;4954587;29;20087;-83
2023/08/05 09:21:33;;;;;;;21.10;9.05;;;;;;;;;;4956755;29;20054;-84
2023/08/05 09:24:04;;;;;;;17.80;8.50;;;;;;;;;;4971169;28;20055;-84
2023/08/05 09:26:36;;;;;;;19.70;9.85;;;;;;;;;;4956504;29;20051;-84
2023/08/05 09:29:08;;;;;;;19.52;8.15;;;;;;;;;;4956677;29;20043;-83
2023/08/05 09:31:40;;;;;;;18.98;9.13;;;;;;;;;;4954554;29;20055;-83
2023/08/05 09:34:13;;;;;;;21.10;9.20;;;;;;;;;;4955776;28;20062;-83
2023/08/05 09:36:46;;;;;;;17.95;9.18;;;;;;;;;;4955197;28;20055;-84
2023/08/05 09:39:23;;;;;;;16.95;8.98;;;;;;;;;;4955689;29;20054;-83
2023/08/05 09:41:53;;;;;;;15.40;8.93;;;;;;;;;;4939983;29;20055;-83
2023/08/05 09:44:23;;;;;;;21.90;9.82;;;;;;;;;;4956018;29;20058;-82
2023/08/05 09:46:58;;;;;;;20.95;9.82;;;;;;;;;;4955968;29;20035;-83
2023/08/05 09:49:33;;;;;;;18.45;9.73;;;;;;;;;;4970057;28;20055;-82
2023/08/05 09:52:04;;;;;;;18.75;9.65;;;;;;;;;;4954575;29;20494;-82
2023/08/05 09:54:38;;;;;;;17.55;9.75;;;;;;;;;;4955162;29;20054;-83
2023/08/05 09:57:13;;;;;;;20.92;9.63;;;;;;;;;;4970450;28;20066;-82
2023/08/05 09:59:47;;;;;;;23.92;11.07;;;;;;;;;;4954411;29;20080;-83
2023/08/05 10:02:26;;;;;;;21.58;10.30;;;;;;;;;;4954240;28;20055;-82
2023/08/05 10:04:56;;;;;;;21.48;10.02;;;;;;;;;;4970326;28;20501;-83
2023/08/05 10:07:30;;;;;;;23.05;10.57;;;;;;;;;;4970195;28;20043;-82
2023/08/05 10:10:08;;;;;;;21.67;9.82;;;;;;;;;;4955183;29;20047;-82
2023/08/05 10:12:43;;;;;;;22.70;9.40;;;;;;;;;;4956003;29;20045;-83
2023/08/05 10:15:21;;;;;;;19.80;9.43;;;;;;;;;;4955586;29;20051;-83
2023/08/05 10:17:53;;;;;;;17.25;9.20;;;;;;;;;;4954109;29;20506;-83
2023/08/05 10:20:40;;;;;;;17.08;8.85;;;;;;;;;;4955065;28;20043;-82
2023/08/05 10:23:13;;;;;;;24.48;9.00;;;;;;;;;;4955960;29;20047;-83
2023/08/05 10:25:57;;;;;;;16.58;9.32;;;;;;;;;;4956004;29;20051;-83
2023/08/05 10:28:35;;;;;;;18.10;9.25;;;;;;;;;;4938794;29;20055;-83
2023/08/05 10:31:28;;;;;;;27.35;10.27;;;;;;;;;;4955459;29;20051;-83
2023/08/05 10:34:11;;;;;;;20.00;9.25;;;;;;;;;;4955165;29;20043;-83
2023/08/05 10:36:48;;;;;;;20.48;9.77;;;;;;;;;;4955944;29;20043;-83
2023/08/05 10:39:41;;;;;;;19.92;9.10;;;;;;;;;;4952867;29;20058;-82
2023/08/05 10:42:30;;;;;;;19.90;9.13;;;;;;;;;;4952625;29;20055;-82
2023/08/05 10:45:00;;;;;;;22.65;8.82;;;;;;;;;;4954952;29;20058;-84
2023/08/05 10:47:30;;;;;;;19.77;8.77;;;;;;;;;;4955427;29;20047;-83
2023/08/05 10:50:03;;;;;;;18.15;8.98;;;;;;;;;;4954686;29;20055;-83
2023/08/05 10:52:37;;;;;;;22.30;9.30;;;;;;;;;;4956626;28;20410;-83
2023/08/05 10:55:15;;;;;;;22.05;9.35;;;;;;;;;;4954500;28;20058;-83
2023/08/05 10:57:47;;;;;;;18.27;9.43;;;;;;;;;;4972275;28;20409;-83
2023/08/05 11:00:21;;;;;;;20.48;8.57;;;;;;;;;;4972659;28;20502;-83
2023/08/05 11:03:29;;;;;;;23.25;9.70;;;;;;;;;;4969916;28;20516;-83
2023/08/05 11:06:05;;;;;;;22.83;9.68;;;;;;;;;;4935288;29;20402;-83
2023/08/05 11:08:38;;;;;;;24.88;10.40;;;;;;;;;;4953070;29;20054;-84
2023/08/05 11:11:13;;;;;;;27.45;10.77;;;;;;;;;;4951556;29;20050;-83
2023/08/05 11:13:48;;;;;;;20.90;10.40;;;;;;;;;;4953037;29;20047;-83
2023/08/05 11:16:19;;;;;;;22.75;10.07;;;;;;;;;;4935199;29;20394;-83
2023/08/05 11:18:58;;;;;;;21.67;10.43;;;;;;;;;;4952725;29;20044;-82
2023/08/05 11:21:56;;;;;;;28.65;10.48;;;;;;;;;;4955624;29;20446;-84
2023/08/05 11:24:59;;;;;;;23.05;10.43;;;;;;;;;;4954113;29;20052;-84
2023/08/05 11:27:33;;;;;;;23.10;9.95;;;;;;;;;;4935362;29;20058;-84
2023/08/05 11:30:15;;;;;;;24.17;10.45;;;;;;;;;;4967478;28;20070;-85
2023/08/05 11:32:50;;;;;;;23.08;11.38;;;;;;;;;;4939282;28;20058;-86
2023/08/05 11:35:22;;;;;;;22.15;10.07;;;;;;;;;;4959285;28;20065;-84
2023/08/05 11:37:53;;;;;;;26.35;10.82;;;;;;;;;;4959480;28;20530;-84
2023/08/05 11:40:25;;;;;;;23.85;10.52;;;;;;;;;;4976064;28;20054;-86
2023/08/05 11:42:56;;;;;;;29.00;10.82;;;;;;;;;;4975752;28;20054;-83
2023/08/05 11:45:29;;;;;;;26.58;10.98;;;;;;;;;;4975802;28;20043;-84
2023/08/05 11:48:00;;;;;;;25.10;11.57;;;;;;;;;;4975232;28;20061;-86
2023/08/05 11:50:35;;;;;;;25.17;12.45;;;;;;;;;;4975706;28;20047;-86
2023/08/05 11:53:08;;;;;;;21.67;11.38;;;;;;;;;;4974988;28;20038;-83
2023/08/05 11:55:42;;;;;;;18.38;9.75;;;;;;;;;;4967514;28;20397;-83
2023/08/05 11:58:13;;;;;;;21.15;10.75;;;;;;;;;;4974905;28;20519;-83
2023/08/05 12:00:46;;;;;;;27.42;12.40;;;;;;;;;;4970290;28;20073;-83
2023/08/05 12:03:19;;;;;;;24.02;11.48;;;;;;;;;;4974126;28;20051;-86
2023/08/05 12:05:50;;;;;;;23.77;11.82;;;;;;;;;;4977044;28;20030;-83
2023/08/05 12:08:42;;;;;;;26.63;11.35;;;;;;;;;;4955140;28;20443;-85
2023/08/05 12:11:14;;;;;;;23.23;11.82;;;;;;;;;;4985366;28;20500;-83
2023/08/05 12:13:47;;;;;;;25.00;11.20;;;;;;;;;;4970234;28;20050;-85
2023/08/05 12:16:19;;;;;;;19.30;12.00;;;;;;;;;;4939722;29;20052;-82
2023/08/05 12:18:49;;;;;;;21.65;10.48;;;;;;;;;;4959463;28;20050;-82
2023/08/05 12:21:21;;;;;;;21.88;11.07;;;;;;;;;;4959437;28;20054;-85
2023/08/05 12:23:51;;;;;;;19.40;9.73;;;;;;;;;;4974412;28;20483;-83
2023/08/05 12:26:31;;;;;;;19.13;11.18;;;;;;;;;;4958955;28;20050;-83
2023/08/05 12:29:01;;;;;;;21.73;11.15;;;;;;;;;;4975786;28;20050;-83
2023/08/05 12:31:32;;;;;;;23.35;10.93;;;;;;;;;;4975858;28;20493;-84
2023/08/05 12:34:04;;;;;;;22.58;9.88;;;;;;;;;;4958965;28;20061;-83
2023/08/05 12:36:36;;;;;;;19.88;11.02;;;;;;;;;;4975737;28;20441;-81
2023/08/05 12:39:08;;;;;;;21.05;9.65;;;;;;;;;;4975890;28;20050;-82
2023/08/05 12:41:40;;;;;;;19.00;9.98;;;;;;;;;;4974568;28;20551;-83
2023/08/05 12:44:10;;;;;;;17.77;10.85;;;;;;;;;;4974497;28;20054;-82
2023/08/05 12:46:44;;;;;;;22.42;10.77;;;;;;;;;;4958800;28;20512;-85
2023/08/05 12:49:15;;;;;;;21.17;10.75;;;;;;;;;;4972874;28;20067;-83
2023/08/05 12:51:47;;;;;;;23.17;10.93;;;;;;;;;;4968984;28;20050;-85
2023/08/05 12:54:20;;;;;;;19.65;11.95;;;;;;;;;;4959144;28;20076;-83
2023/08/05 12:56:52;;;;;;;19.13;11.35;;;;;;;;;;4957797;28;20050;-83
2023/08/05 12:59:22;;;;;;;20.90;11.30;;;;;;;;;;4967843;28;20505;-83
2023/08/05 13:01:52;;;;;;;21.23;12.00;;;;;;;;;;4974496;28;20405;-83
2023/08/05 13:04:27;;;;;;;23.08;12.25;;;;;;;;;;4975737;28;20498;-83
2023/08/05 13:07:02;;;;;;;22.70;12.77;;;;;;;;;;4958967;28;20046;-83
2023/08/05 13:09:35;;;;;;;26.55;15.07;;;;;;;;;;4976292;28;20407;-83
2023/08/05 13:12:07;;;;;;;23.23;11.60;;;;;;;;;;4975131;28;20050;-83
2023/08/05 13:14:42;;;;;;;23.42;11.48;;;;;;;;;;4975997;28;20047;-83
2023/08/05 13:17:15;;;;;;;22.52;11.57;;;;;;;;;;4958401;28;20046;-83
2023/08/05 13:19:45;;;;;;;18.27;11.25;;;;;;;;;;4956880;28;20063;-84
2023/08/05 13:22:16;;;;;;;18.80;10.20;;;;;;;;;;4958007;28;20046;-83
2023/08/05 13:24:48;;;;;;;17.73;10.73;;;;;;;;;;4970681;28;20046;-83
2023/08/05 13:27:23;;;;;;;16.67;10.18;;;;;;;;;;4973486;28;20536;-84
2023/08/05 13:29:55;;;;;;;17.55;10.38;;;;;;;;;;4974771;28;20051;-84
2023/08/05 13:32:27;;;;;;;19.48;10.35;;;;;;;;;;4954334;28;20497;-84
2023/08/05 13:34:58;;;;;;;19.20;10.52;;;;;;;;;;4974607;28;20054;-83
2023/08/05 13:37:32;;;;;;;18.08;10.02;;;;;;;;;;4975928;28;20058;-84
2023/08/05 13:40:02;;;;;;;19.27;9.55;;;;;;;;;;4974584;28;20042;-84
2023/08/05 13:42:32;;;;;;;17.15;10.38;;;;;;;;;;4973487;28;20446;-85
2023/08/05 13:45:08;;;;;;;17.13;9.77;;;;;;;;;;4973955;28;20058;-85
2023/08/05 13:47:40;;;;;;;22.10;9.50;;;;;;;;;;4975298;28;20050;-84
2023/08/05 13:50:13;;;;;;;19.27;9.73;;;;;;;;;;4975153;28;20051;-84
2023/08/05 13:52:44;;;;;;;15.98;9.43;;;;;;;;;;4975220;28;20042;-83
2023/08/05 13:55:16;;;;;;;15.25;9.20;;;;;;;;;;4974254;28;20042;-84
2023/08/05 13:57:47;;;;;;;15.52;8.77;;;;;;;;;;4957539;28;20379;-84
2023/08/05 14:00:21;;;;;;;19.40;10.73;;;;;;;;;;4969425;28;20099;-83
2023/08/05 14:02:52;;;;;;;13.93;8.02;;;;;;;;;;4974000;28;20062;-83
2023/08/05 14:05:26;;;;;;;13.70;7.53;;;;;;;;;;4965455;28;20047;-84
2023/08/05 14:07:58;;;;;;;14.48;8.43;;;;;;;;;;4972753;28;20042;-82
2023/08/05 14:10:28;;;;;;;12.27;6.15;;;;;;;;;;4972899;28;20047;-81
2023/08/05 14:12:58;;;;;;;12.50;7.80;;;;;;;;;;4972451;28;20516;-81
2023/08/05 14:15:34;;;;;;;11.07;6.15;;;;;;;;;;4967678;28;20058;-81
2023/08/05 14:18:06;;;;;;;12.52;6.20;;;;;;;;;;4972303;28;20046;-81
2023/08/05 14:20:36;;;;;;;8.90;4.68;;;;;;;;;;4955608;28;20043;-81
2023/08/05 14:23:09;;;;;;;7.85;4.75;;;;;;;;;;4967498;28;20049;-81
2023/08/05 14:25:41;;;;;;;10.45;4.75;;;;;;;;;;4969794;28;20539;-81
2023/08/05 14:28:13;;;;;;;8.27;4.82;;;;;;;;;;4967762;28;20038;-81
2023/08/05 14:30:44;;;;;;;11.32;6.53;;;;;;;;;;4972006;28;20539;-80
2023/08/05 14:33:16;;;;;;;13.13;6.07;;;;;;;;;;4972169;28;20043;-81
2023/08/05 14:35:48;;;;;;;9.68;6.10;;;;;;;;;;4973981;28;20054;-80
2023/08/05 14:38:19;;;;;;;10.95;6.60;;;;;;;;;;4974940;28;20043;-80
2023/08/05 14:40:49;;;;;;;14.10;7.13;;;;;;;;;;4974403;28;20047;-81
2023/08/05 14:43:20;;;;;;;12.85;7.03;;;;;;;;;;4975251;28;20051;-79
2023/08/05 14:45:51;;;;;;;11.55;7.13;;;;;;;;;;4974198;28;20062;-82
2023/08/05 14:48:23;;;;;;;11.90;6.53;;;;;;;;;;4956075;28;20131;-79
2023/08/05 14:51:03;;;;;;;16.05;7.60;;;;;;;;;;4973229;28;20049;-79
2023/08/05 14:53:36;;;;;;;12.55;4.72;;;;;;;;;;4954484;29;20043;-81
2023/08/05 14:56:08;;;;;;;14.88;5.78;;;;;;;;;;4955479;29;20367;-80